sensor_id;sensor_type;location;lat;lon;timestamp;pressure;altitude;pressure_sealevel;temperature;humidity
69780;BME280;57052;55.602;38.096;2023-04-19T00:01:20;101230.09;;;13.28;36.11
69780;BME280;57052;55.602;38.096;2023-04-19T00:03:45;101227.91;;;13.25;36.65
69780;BME280;57052;55.602;38.096;2023-04-19T00:06:11;101234.69;;;13.22;36.24
69780;BME280;57052;55.602;38.096;2023-04-19T00:08:40;101228.69;;;13.20;36.60
69780;BME280;57052;55.602;38.096;2023-04-19T00:11:07;101235.78;;;13.21;36.47
69780;BME280;57052;55.602;38.096;2023-04-19T00:13:33;101215.84;;;13.11;36.53
69780;BME280;57052;55.602;38.096;2023-04-19T00:15:58;101239.28;;;13.17;36.31
69780;BME280;57052;55.602;38.096;2023-04-19T00:18:24;101240.09;;;13.17;36.14
69780;BME280;57052;55.602;38.096;2023-04-19T00:20:49;101241.44;;;13.15;36.13
69780;BME280;57052;55.602;38.096;2023-04-19T00:23:15;101236.00;;;13.15;36.42
69780;BME280;57052;55.602;38.096;2023-04-19T00:25:41;101239.28;;;13.17;36.14
69780;BME280;57052;55.602;38.096;2023-04-19T00:28:06;101236.00;;;13.15;36.05
69780;BME280;57052;55.602;38.096;2023-04-19T00:30:32;101232.47;;;13.14;36.16
69780;BME280;57052;55.602;38.096;2023-04-19T00:32:57;101229.19;;;13.12;36.14
69780;BME280;57052;55.602;38.096;2023-04-19T00:35:23;101237.34;;;13.12;36.47
69780;BME280;57052;55.602;38.096;2023-04-19T00:37:48;101232.16;;;13.11;36.09
69780;BME280;57052;55.602;38.096;2023-04-19T00:40:14;101222.06;;;13.06;36.43
69780;BME280;57052;55.602;38.096;2023-04-19T00:42:40;101235.97;;;13.10;36.20
69780;BME280;57052;55.602;38.096;2023-04-19T00:45:06;101238.69;;;13.10;36.55
69780;BME280;57052;55.602;38.096;2023-04-19T00:47:33;101241.94;;;13.07;36.23
69780;BME280;57052;55.602;38.096;2023-04-19T00:49:59;101236.69;;;13.05;36.01
69780;BME280;57052;55.602;38.096;2023-04-19T00:52:24;101233.44;;;13.03;36.19
69780;BME280;57052;55.602;38.096;2023-04-19T00:54:50;101234.25;;;13.04;36.52
69780;BME280;57052;55.602;38.096;2023-04-19T00:57:17;101238.03;;;13.03;36.12
69780;BME280;57052;55.602;38.096;2023-04-19T00:59:43;101235.88;;;13.00;36.13
69780;BME280;57052;55.602;38.096;2023-04-19T01:02:08;101238.59;;;13.00;36.31
69780;BME280;57052;55.602;38.096;2023-04-19T01:04:34;101234.22;;;12.99;36.22
69780;BME280;57052;55.602;38.096;2023-04-19T01:07:01;101236.94;;;12.99;36.08
69780;BME280;57052;55.602;38.096;2023-04-19T01:09:27;101240.72;;;12.98;36.47
69780;BME280;57052;55.602;38.096;2023-04-19T01:11:53;101244.53;;;12.97;36.01
69780;BME280;57052;55.602;38.096;2023-04-19T01:14:18;101239.34;;;12.95;36.11
69780;BME280;57052;55.602;38.096;2023-04-19T01:16:44;101236.88;;;12.88;36.39
69780;BME280;57052;55.602;38.096;2023-04-19T01:19:11;101239.03;;;12.86;36.17
69780;BME280;57052;55.602;38.096;2023-04-19T01:21:36;101241.75;;;12.86;36.64
69780;BME280;57052;55.602;38.096;2023-04-19T01:24:03;101239.84;;;12.87;36.59
69780;BME280;57052;55.602;38.096;2023-04-19T01:26:29;101228.06;;;12.76;36.45
69780;BME280;57052;55.602;38.096;2023-04-19T01:28:55;101231.91;;;12.80;36.61
69780;BME280;57052;55.602;38.096;2023-04-19T01:31:20;101237.88;;;12.77;36.33
69780;BME280;57052;55.602;38.096;2023-04-19T01:33:46;101236.50;;;12.75;36.57
69780;BME280;57052;55.602;38.096;2023-04-19T01:36:12;101240.00;;;12.75;36.52
69780;BME280;57052;55.602;38.096;2023-04-19T01:38:37;101249.50;;;12.73;36.54
69780;BME280;57052;55.602;38.096;2023-04-19T01:41:03;101231.50;;;12.62;36.31
69780;BME280;57052;55.602;38.096;2023-04-19T01:43:28;101253.81;;;12.69;36.37
69780;BME280;57052;55.602;38.096;2023-04-19T01:45:54;101237.16;;;12.60;36.53
69780;BME280;57052;55.602;38.096;2023-04-19T01:48:19;101246.44;;;12.64;36.62
69780;BME280;57052;55.602;38.096;2023-04-19T01:50:45;101245.06;;;12.62;36.32
69780;BME280;57052;55.602;38.096;2023-04-19T01:53:11;101251.56;;;12.61;36.71
69780;BME280;57052;55.602;38.096;2023-04-19T01:55:37;101210.88;;;12.34;36.57
69780;BME280;57052;55.602;38.096;2023-04-19T01:58:02;101243.09;;;12.52;36.70
69780;BME280;57052;55.602;38.096;2023-04-19T02:00:28;101247.19;;;12.55;36.63
69780;BME280;57052;55.602;38.096;2023-04-19T02:02:53;101249.59;;;12.51;36.29
69780;BME280;57052;55.602;38.096;2023-04-19T02:05:19;101245.47;;;12.49;36.58
69780;BME280;57052;55.602;38.096;2023-04-19T02:07:45;101241.66;;;12.45;36.52
69780;BME280;57052;55.602;38.096;2023-04-19T02:10:11;101249.25;;;12.48;36.58
69780;BME280;57052;55.602;38.096;2023-04-19T02:12:37;101223.94;;;12.37;36.44
69780;BME280;57052;55.602;38.096;2023-04-19T02:15:03;101239.19;;;12.43;36.43
69780;BME280;57052;55.602;38.096;2023-04-19T02:17:30;101250.31;;;12.42;36.63
69780;BME280;57052;55.602;38.096;2023-04-19T02:19:55;101248.66;;;12.41;36.80
69780;BME280;57052;55.602;38.096;2023-04-19T02:22:21;101241.28;;;12.36;36.60
69780;BME280;57052;55.602;38.096;2023-04-19T02:24:48;101239.84;;;12.29;37.01
69780;BME280;57052;55.602;38.096;2023-04-19T02:27:14;101255.69;;;12.37;37.08
69780;BME280;57052;55.602;38.096;2023-04-19T02:29:40;101253.47;;;12.34;36.79
69780;BME280;57052;55.602;38.096;2023-04-19T02:32:06;101263.50;;;12.33;36.83
69780;BME280;57052;55.602;38.096;2023-04-19T02:34:32;101248.22;;;12.22;36.93
69780;BME280;57052;55.602;38.096;2023-04-19T02:36:58;101253.69;;;12.27;36.87
69780;BME280;57052;55.602;38.096;2023-04-19T02:39:23;101241.34;;;12.14;37.00
69780;BME280;57052;55.602;38.096;2023-04-19T02:41:49;101263.97;;;12.25;36.99
69780;BME280;57052;55.602;38.096;2023-04-19T02:44:15;101259.56;;;12.19;37.05
69780;BME280;57052;55.602;38.096;2023-04-19T02:46:41;101265.81;;;12.19;37.34
69780;BME280;57052;55.602;38.096;2023-04-19T02:49:12;101269.88;;;12.17;36.86
69780;BME280;57052;55.602;38.096;2023-04-19T02:51:37;101274.47;;;12.16;37.06
69780;BME280;57052;55.602;38.096;2023-04-19T02:54:03;101269.03;;;12.16;36.88
69780;BME280;57052;55.602;38.096;2023-04-19T02:56:29;101261.97;;;12.15;37.03
69780;BME280;57052;55.602;38.096;2023-04-19T02:58:54;101261.13;;;12.15;36.96
69780;BME280;57052;55.602;38.096;2023-04-19T03:01:21;101272.81;;;12.15;36.96
69780;BME280;57052;55.602;38.096;2023-04-19T03:03:46;101265.19;;;12.12;37.29
69780;BME280;57052;55.602;38.096;2023-04-19T03:06:12;101265.50;;;12.16;37.22
69780;BME280;57052;55.602;38.096;2023-04-19T03:08:39;101264.69;;;12.15;37.14
69780;BME280;57052;55.602;38.096;2023-04-19T03:11:05;101260.34;;;12.14;37.07
69780;BME280;57052;55.602;38.096;2023-04-19T03:13:30;101253.25;;;12.13;37.34
69780;BME280;57052;55.602;38.096;2023-04-19T03:15:56;101263.28;;;12.13;37.19
69780;BME280;57052;55.602;38.096;2023-04-19T03:18:21;101262.47;;;12.12;37.40
69780;BME280;57052;55.602;38.096;2023-04-19T03:20:47;101260.56;;;12.13;37.26
69780;BME280;57052;55.602;38.096;2023-04-19T03:23:12;101264.38;;;12.12;37.17
69780;BME280;57052;55.602;38.096;2023-04-19T03:25:38;101251.56;;;12.07;37.53
69780;BME280;57052;55.602;38.096;2023-04-19T03:28:04;101267.34;;;12.10;37.60
69780;BME280;57052;55.602;38.096;2023-04-19T03:30:29;101260.78;;;12.06;37.43
69780;BME280;57052;55.602;38.096;2023-04-19T03:32:55;101266.50;;;12.10;37.41
69780;BME280;57052;55.602;38.096;2023-04-19T03:35:20;101272.75;;;12.10;37.54
69780;BME280;57052;55.602;38.096;2023-04-19T03:37:49;101268.44;;;12.09;37.29
69780;BME280;57052;55.602;38.096;2023-04-19T03:40:15;101272.22;;;12.08;37.33
69780;BME280;57052;55.602;38.096;2023-04-19T03:42:40;101274.91;;;12.08;37.35
69780;BME280;57052;55.602;38.096;2023-04-19T03:45:06;101261.00;;;12.00;37.16
69780;BME280;57052;55.602;38.096;2023-04-19T03:47:32;101263.72;;;12.00;37.17
69780;BME280;57052;55.602;38.096;2023-04-19T03:49:58;101284.94;;;12.08;37.38
69780;BME280;57052;55.602;38.096;2023-04-19T03:52:23;101276.56;;;12.09;37.62
69780;BME280;57052;55.602;38.096;2023-04-19T03:54:50;101270.31;;;12.09;37.37
69780;BME280;57052;55.602;38.096;2023-04-19T03:57:16;101270.88;;;12.11;37.59
69780;BME280;57052;55.602;38.096;2023-04-19T03:59:42;101274.97;;;12.13;36.97
69780;BME280;57052;55.602;38.096;2023-04-19T04:02:07;101275.81;;;12.14;37.17
69780;BME280;57052;55.602;38.096;2023-04-19T04:04:33;101278.53;;;12.14;37.39
69780;BME280;57052;55.602;38.096;2023-04-19T04:06:58;101285.34;;;12.16;37.29
69780;BME280;57052;55.602;38.096;2023-04-19T04:09:24;101259.47;;;12.09;37.55
69780;BME280;57052;55.602;38.096;2023-04-19T04:11:50;101287.00;;;12.22;37.11
69780;BME280;57052;55.602;38.096;2023-04-19T04:14:15;101282.97;;;12.25;37.53
69780;BME280;57052;55.602;38.096;2023-04-19T04:16:41;101267.78;;;12.24;37.16
69780;BME280;57052;55.602;38.096;2023-04-19T04:19:06;101281.69;;;12.33;37.26
69780;BME280;57052;55.602;38.096;2023-04-19T04:21:32;101275.47;;;12.32;37.08
69780;BME280;57052;55.602;38.096;2023-04-19T04:23:57;101286.63;;;12.36;37.47
69780;BME280;57052;55.602;38.096;2023-04-19T04:26:26;101272.22;;;12.35;37.01
69780;BME280;57052;55.602;38.096;2023-04-19T04:28:55;101277.69;;;12.40;37.30
69780;BME280;57052;55.602;38.096;2023-04-19T04:31:21;101272.84;;;12.42;37.21
69780;BME280;57052;55.602;38.096;2023-04-19T04:33:47;101264.66;;;12.37;37.21
69780;BME280;57052;55.602;38.096;2023-04-19T04:36:13;101269.59;;;12.45;37.25
69780;BME280;57052;55.602;38.096;2023-04-19T04:38:38;101279.47;;;12.51;37.00
69780;BME280;57052;55.602;38.096;2023-04-19T04:41:04;101281.16;;;12.57;37.07
69780;BME280;57052;55.602;38.096;2023-04-19T04:43:30;101281.22;;;12.62;37.23
69780;BME280;57052;55.602;38.096;2023-04-19T04:45:56;101268.41;;;12.63;36.91
69780;BME280;57052;55.602;38.096;2023-04-19T04:48:22;101271.78;;;12.70;37.18
69780;BME280;57052;55.602;38.096;2023-04-19T04:50:48;101280.53;;;12.77;37.02
69780;BME280;57052;55.602;38.096;2023-04-19T04:53:14;101267.75;;;12.77;37.00
69780;BME280;57052;55.602;38.096;2023-04-19T04:55:39;101282.00;;;12.90;37.07
69780;BME280;57052;55.602;38.096;2023-04-19T04:58:05;101287.19;;;12.96;36.85
69780;BME280;57052;55.602;38.096;2023-04-19T05:00:31;101284.22;;;12.98;36.64
69780;BME280;57052;55.602;38.096;2023-04-19T05:02:58;101268.72;;;12.98;36.96
69780;BME280;57052;55.602;38.096;2023-04-19T05:05:24;101278.13;;;13.12;36.83
69780;BME280;57052;55.602;38.096;2023-04-19T05:07:49;101280.09;;;13.22;36.49
69780;BME280;57052;55.602;38.096;2023-04-19T05:10:15;101283.41;;;13.29;36.82
69780;BME280;57052;55.602;38.096;2023-04-19T05:12:41;101282.66;;;13.38;36.62
69780;BME280;57052;55.602;38.096;2023-04-19T05:15:07;101275.88;;;13.41;36.77
69780;BME280;57052;55.602;38.096;2023-04-19T05:17:33;101289.56;;;13.56;36.39
69780;BME280;57052;55.602;38.096;2023-04-19T05:19:58;101295.34;;;13.65;36.46
69780;BME280;57052;55.602;38.096;2023-04-19T05:22:24;101279.28;;;13.68;36.63
69780;BME280;57052;55.602;38.096;2023-04-19T05:24:50;101292.69;;;13.80;36.15
69780;BME280;57052;55.602;38.096;2023-04-19T05:27:16;101293.81;;;13.89;36.23
69780;BME280;57052;55.602;38.096;2023-04-19T05:29:41;101289.44;;;13.88;36.26
69780;BME280;57052;55.602;38.096;2023-04-19T05:32:07;101297.41;;;13.99;36.43
69780;BME280;57052;55.602;38.096;2023-04-19T05:34:33;101287.59;;;13.98;36.11
69780;BME280;57052;55.602;38.096;2023-04-19T05:36:59;101301.53;;;14.12;35.88
69780;BME280;57052;55.602;38.096;2023-04-19T05:39:25;101287.91;;;14.07;36.26
69780;BME280;57052;55.602;38.096;2023-04-19T05:41:50;101302.66;;;14.21;35.88
69780;BME280;57052;55.602;38.096;2023-04-19T05:44:16;101295.03;;;14.23;35.76
69780;BME280;57052;55.602;38.096;2023-04-19T05:46:42;101302.41;;;14.28;36.08
69780;BME280;57052;55.602;38.096;2023-04-19T05:49:07;101311.19;;;14.35;35.64
69780;BME280;57052;55.602;38.096;2023-04-19T05:51:33;101313.09;;;14.39;35.75
69780;BME280;57052;55.602;38.096;2023-04-19T05:54:01;101305.75;;;14.45;35.86
69780;BME280;57052;55.602;38.096;2023-04-19T05:56:27;101308.50;;;14.50;35.65
69780;BME280;57052;55.602;38.096;2023-04-19T05:58:53;101301.41;;;14.49;35.36
69780;BME280;57052;55.602;38.096;2023-04-19T06:01:20;101299.53;;;14.64;35.65
69780;BME280;57052;55.602;38.096;2023-04-19T06:03:46;101300.06;;;14.71;35.45
69780;BME280;57052;55.602;38.096;2023-04-19T06:06:17;101303.34;;;14.78;35.03
69780;BME280;57052;55.602;38.096;2023-04-19T06:08:43;101300.38;;;14.85;34.98
69780;BME280;57052;55.602;38.096;2023-04-19T06:11:08;101310.47;;;14.95;34.95
69780;BME280;57052;55.602;38.096;2023-04-19T06:13:34;101311.00;;;15.02;34.66
69780;BME280;57052;55.602;38.096;2023-04-19T06:16:01;101302.81;;;15.07;34.62
69780;BME280;57052;55.602;38.096;2023-04-19T06:18:27;101308.56;;;15.15;34.25
69780;BME280;57052;55.602;38.096;2023-04-19T06:20:52;101302.28;;;15.15;33.85
69780;BME280;57052;55.602;38.096;2023-04-19T06:23:18;101307.44;;;15.26;33.95
69780;BME280;57052;55.602;38.096;2023-04-19T06:25:44;101296.81;;;15.30;33.52
69780;BME280;57052;55.602;38.096;2023-04-19T06:28:09;101293.81;;;15.26;33.29
69780;BME280;57052;55.602;38.096;2023-04-19T06:30:35;101299.25;;;15.31;33.43
69780;BME280;57052;55.602;38.096;2023-04-19T06:33:01;101294.91;;;15.30;33.17
69780;BME280;57052;55.602;38.096;2023-04-19T06:35:26;101303.88;;;15.41;32.71
69780;BME280;57052;55.602;38.096;2023-04-19T06:37:52;101302.78;;;15.42;32.52
69780;BME280;57052;55.602;38.096;2023-04-19T06:40:18;101305.53;;;15.47;33.01
69780;BME280;57052;55.602;38.096;2023-04-19T06:42:43;101307.16;;;15.53;32.68
69780;BME280;57052;55.602;38.096;2023-04-19T06:45:09;101295.97;;;15.60;32.35
69780;BME280;57052;55.602;38.096;2023-04-19T06:47:35;101292.94;;;15.61;32.02
69780;BME280;57052;55.602;38.096;2023-04-19T06:50:01;101301.94;;;15.72;31.92
69780;BME280;57052;55.602;38.096;2023-04-19T06:52:27;101313.13;;;15.80;31.62
69780;BME280;57052;55.602;38.096;2023-04-19T06:54:53;101306.28;;;15.88;31.42
69780;BME280;57052;55.602;38.096;2023-04-19T06:57:19;101304.28;;;15.98;30.97
69780;BME280;57052;55.602;38.096;2023-04-19T06:59:44;101304.84;;;16.06;31.08
69780;BME280;57052;55.602;38.096;2023-04-19T07:02:10;101300.72;;;16.13;30.93
69780;BME280;57052;55.602;38.096;2023-04-19T07:04:36;101297.94;;;16.18;30.69
69780;BME280;57052;55.602;38.096;2023-04-19T07:07:05;101298.19;;;16.22;29.80
69780;BME280;57052;55.602;38.096;2023-04-19T07:09:30;101300.34;;;16.30;30.20
69780;BME280;57052;55.602;38.096;2023-04-19T07:11:56;101294.03;;;16.34;30.05
69780;BME280;57052;55.602;38.096;2023-04-19T07:14:22;101297.81;;;16.38;30.04
69780;BME280;57052;55.602;38.096;2023-04-19T07:16:48;101277.06;;;16.37;29.95
69780;BME280;57052;55.602;38.096;2023-04-19T07:19:14;101289.28;;;16.50;29.93
69780;BME280;57052;55.602;38.096;2023-04-19T07:21:39;101286.81;;;16.53;29.60
69780;BME280;57052;55.602;38.096;2023-04-19T07:24:05;101287.06;;;16.62;29.61
69780;BME280;57052;55.602;38.096;2023-04-19T07:26:31;101277.47;;;16.64;29.48
69780;BME280;57052;55.602;38.096;2023-04-19T07:28:58;101284.50;;;16.76;29.61
69780;BME280;57052;55.602;38.096;2023-04-19T07:31:24;101286.09;;;16.82;29.95
69780;BME280;57052;55.602;38.096;2023-04-19T07:33:50;101278.16;;;16.85;29.26
69780;BME280;57052;55.602;38.096;2023-04-19T07:36:16;101278.09;;;16.90;29.39
69780;BME280;57052;55.602;38.096;2023-04-19T07:38:42;101283.19;;;17.02;29.26
69780;BME280;57052;55.602;38.096;2023-04-19T07:41:08;101282.06;;;17.08;29.13
69780;BME280;57052;55.602;38.096;2023-04-19T07:43:34;101287.19;;;17.14;29.22
69780;BME280;57052;55.602;38.096;2023-04-19T07:46:00;101290.19;;;17.18;28.73
69780;BME280;57052;55.602;38.096;2023-04-19T07:48:26;101296.13;;;17.25;28.72
69780;BME280;57052;55.602;38.096;2023-04-19T07:50:51;101293.34;;;17.30;28.72
69780;BME280;57052;55.602;38.096;2023-04-19T07:53:17;101282.63;;;17.33;28.60
69780;BME280;57052;55.602;38.096;2023-04-19T07:55:43;101292.69;;;17.43;28.46
69780;BME280;57052;55.602;38.096;2023-04-19T07:58:09;101293.72;;;17.47;28.63
69780;BME280;57052;55.602;38.096;2023-04-19T08:00:35;101292.63;;;17.48;28.33
69780;BME280;57052;55.602;38.096;2023-04-19T08:03:02;101296.44;;;17.52;28.14
69780;BME280;57052;55.602;38.096;2023-04-19T08:05:28;101295.84;;;17.55;28.13
69780;BME280;57052;55.602;38.096;2023-04-19T08:07:54;101283.78;;;17.56;28.10
69780;BME280;57052;55.602;38.096;2023-04-19T08:10:20;101299.84;;;17.68;27.98
69780;BME280;57052;55.602;38.096;2023-04-19T08:12:45;101289.66;;;17.73;27.91
69780;BME280;57052;55.602;38.096;2023-04-19T08:15:11;101293.66;;;17.81;28.09
69780;BME280;57052;55.602;38.096;2023-04-19T08:17:39;101294.94;;;17.88;27.82
69780;BME280;57052;55.602;38.096;2023-04-19T08:20:08;101290.50;;;17.92;27.69
69780;BME280;57052;55.602;38.096;2023-04-19T08:22:35;101290.13;;;17.99;27.73
69780;BME280;57052;55.602;38.096;2023-04-19T08:25:01;101280.00;;;18.00;27.53
69780;BME280;57052;55.602;38.096;2023-04-19T08:27:28;101291.19;;;18.03;27.57
69780;BME280;57052;55.602;38.096;2023-04-19T08:29:54;101281.84;;;18.04;27.47
69780;BME280;57052;55.602;38.096;2023-04-19T08:32:19;101266.81;;;18.02;27.29
69780;BME280;57052;55.602;38.096;2023-04-19T08:34:45;101284.13;;;18.21;27.35
69780;BME280;57052;55.602;38.096;2023-04-19T08:37:11;101279.59;;;18.30;27.43
69780;BME280;57052;55.602;38.096;2023-04-19T08:39:37;101257.16;;;18.28;27.03
69780;BME280;57052;55.602;38.096;2023-04-19T08:42:05;101278.28;;;18.46;27.16
69780;BME280;57052;55.602;38.096;2023-04-19T08:44:31;101283.41;;;18.52;26.98
69780;BME280;57052;55.602;38.096;2023-04-19T08:47:00;101275.94;;;18.58;25.86
69780;BME280;57052;55.602;38.096;2023-04-19T08:49:30;101270.44;;;18.58;26.38
69780;BME280;57052;55.602;38.096;2023-04-19T08:51:59;101262.19;;;18.77;26.63
69780;BME280;57052;55.602;38.096;2023-04-19T08:54:28;101270.25;;;18.87;26.53
69780;BME280;57052;55.602;38.096;2023-04-19T08:56:55;101267.16;;;18.93;26.38
69780;BME280;57052;55.602;38.096;2023-04-19T08:59:22;101265.34;;;19.02;26.23
69780;BME280;57052;55.602;38.096;2023-04-19T09:01:48;101267.59;;;19.14;26.05
69780;BME280;57052;55.602;38.096;2023-04-19T09:04:14;101268.84;;;19.21;25.83
69780;BME280;57052;55.602;38.096;2023-04-19T09:06:40;101258.91;;;19.26;25.69
69780;BME280;57052;55.602;38.096;2023-04-19T09:09:17;101269.06;;;19.25;23.84
69780;BME280;57052;55.602;38.096;2023-04-19T09:11:43;101258.81;;;19.31;25.33
69780;BME280;57052;55.602;38.096;2023-04-19T09:14:13;101251.06;;;19.33;24.70
69780;BME280;57052;55.602;38.096;2023-04-19T09:16:39;101247.16;;;19.39;25.53
69780;BME280;57052;55.602;38.096;2023-04-19T09:19:05;101255.09;;;19.54;25.46
69780;BME280;57052;55.602;38.096;2023-04-19T09:21:32;101256.91;;;19.72;25.44
69780;BME280;57052;55.602;38.096;2023-04-19T09:23:58;101250.84;;;19.89;25.37
69780;BME280;57052;55.602;38.096;2023-04-19T09:26:25;101247.66;;;20.09;25.04
69780;BME280;57052;55.602;38.096;2023-04-19T09:28:57;101243.16;;;20.26;24.48
69780;BME280;57052;55.602;38.096;2023-04-19T09:31:24;101237.81;;;20.43;24.61
69780;BME280;57052;55.602;38.096;2023-04-19T09:33:50;101206.53;;;20.39;24.82
69780;BME280;57052;55.602;38.096;2023-04-19T09:36:32;101236.63;;;20.80;24.14
69780;BME280;57052;55.602;38.096;2023-04-19T09:38:58;101205.25;;;20.81;24.36
69780;BME280;57052;55.602;38.096;2023-04-19T09:41:25;101230.94;;;21.21;24.23
69780;BME280;57052;55.602;38.096;2023-04-19T09:43:51;101221.31;;;21.41;24.26
69780;BME280;57052;55.602;38.096;2023-04-19T09:46:34;101231.56;;;21.57;22.18
69780;BME280;57052;55.602;38.096;2023-04-19T09:51:51;101228.16;;;22.00;22.40
69780;BME280;57052;55.602;38.096;2023-04-19T09:54:18;101213.25;;;22.18;23.03
69780;BME280;57052;55.602;38.096;2023-04-19T09:56:45;101218.16;;;22.38;22.90
69780;BME280;57052;55.602;38.096;2023-04-19T09:59:11;101223.66;;;22.55;22.25
69780;BME280;57052;55.602;38.096;2023-04-19T10:01:41;101224.34;;;22.69;22.03
69780;BME280;57052;55.602;38.096;2023-04-19T10:04:10;101217.16;;;22.85;22.22
69780;BME280;57052;55.602;38.096;2023-04-19T10:06:50;101205.41;;;23.06;21.89
69780;BME280;57052;55.602;38.096;2023-04-19T10:09:20;101206.34;;;23.27;21.07
69780;BME280;57052;55.602;38.096;2023-04-19T10:11:50;101201.25;;;23.46;21.01
69780;BME280;57052;55.602;38.096;2023-04-19T10:14:21;101205.69;;;23.68;20.66
69780;BME280;57052;55.602;38.096;2023-04-19T10:16:49;101206.88;;;23.87;21.43
69780;BME280;57052;55.602;38.096;2023-04-19T10:19:16;101199.28;;;24.05;20.99
69780;BME280;57052;55.602;38.096;2023-04-19T10:21:43;101194.63;;;24.17;20.34
69780;BME280;57052;55.602;38.096;2023-04-19T10:24:12;101203.81;;;24.30;20.27
69780;BME280;57052;55.602;38.096;2023-04-19T10:32:16;101175.88;;;24.76;19.95
69780;BME280;57052;55.602;38.096;2023-04-19T10:34:42;101183.56;;;24.92;19.92
69780;BME280;57052;55.602;38.096;2023-04-19T10:37:12;101188.09;;;25.08;18.98
69780;BME280;57052;55.602;38.096;2023-04-19T10:39:39;101184.09;;;25.30;19.50
69780;BME280;57052;55.602;38.096;2023-04-19T10:42:05;101176.59;;;25.42;19.22
69780;BME280;57052;55.602;38.096;2023-04-19T10:44:31;101180.31;;;25.59;19.39
69780;BME280;57052;55.602;38.096;2023-04-19T10:46:58;101167.16;;;25.68;19.00
69780;BME280;57052;55.602;38.096;2023-04-19T10:49:25;101186.78;;;25.87;18.92
69780;BME280;57052;55.602;38.096;2023-04-19T10:51:52;101160.88;;;25.95;18.86
69780;BME280;57052;55.602;38.096;2023-04-19T10:54:33;101164.50;;;26.11;16.63
69780;BME280;57052;55.602;38.096;2023-04-19T10:57:05;101166.84;;;26.21;17.81
69780;BME280;57052;55.602;38.096;2023-04-19T10:59:35;101174.78;;;26.35;17.44
69780;BME280;57052;55.602;38.096;2023-04-19T11:02:25;101173.81;;;26.43;17.88
69780;BME280;57052;55.602;38.096;2023-04-19T11:07:20;101160.38;;;26.72;17.58
69780;BME280;57052;55.602;38.096;2023-04-19T11:09:49;101152.34;;;26.83;17.16
69780;BME280;57052;55.602;38.096;2023-04-19T11:12:20;101143.09;;;26.79;17.32
69780;BME280;57052;55.602;38.096;2023-04-19T11:14:51;101142.19;;;26.75;16.80
69780;BME280;57052;55.602;38.096;2023-04-19T11:17:21;101149.47;;;26.80;16.99
69780;BME280;57052;55.602;38.096;2023-04-19T11:20:02;101139.06;;;26.77;15.42
69780;BME280;57052;55.602;38.096;2023-04-19T11:22:34;101141.38;;;26.74;16.83
69780;BME280;57052;55.602;38.096;2023-04-19T11:25:10;101141.22;;;26.83;16.26
69780;BME280;57052;55.602;38.096;2023-04-19T11:27:37;101140.06;;;26.84;17.00
69780;BME280;57052;55.602;38.096;2023-04-19T11:30:08;101146.38;;;26.69;16.08
69780;BME280;57052;55.602;38.096;2023-04-19T11:32:43;101145.63;;;26.56;16.26
69780;BME280;57052;55.602;38.096;2023-04-19T11:35:09;101144.22;;;26.62;17.04
69780;BME280;57052;55.602;38.096;2023-04-19T11:37:36;101141.72;;;26.73;16.96
69780;BME280;57052;55.602;38.096;2023-04-19T11:40:04;101116.59;;;26.82;16.75
69780;BME280;57052;55.602;38.096;2023-04-19T11:42:32;101127.19;;;27.07;16.62
69780;BME280;57052;55.602;38.096;2023-04-19T11:44:58;101113.91;;;27.16;16.48
69780;BME280;57052;55.602;38.096;2023-04-19T11:47:25;101118.84;;;27.39;16.65
69780;BME280;57052;55.602;38.096;2023-04-19T11:49:53;101120.47;;;27.40;16.32
69780;BME280;57052;55.602;38.096;2023-04-19T11:52:23;101117.94;;;27.50;16.51
69780;BME280;57052;55.602;38.096;2023-04-19T11:54:53;101117.88;;;27.66;15.78
69780;BME280;57052;55.602;38.096;2023-04-19T11:57:29;101114.88;;;27.55;15.11
69780;BME280;57052;55.602;38.096;2023-04-19T12:00:07;101120.47;;;27.40;15.47
69780;BME280;57052;55.602;38.096;2023-04-19T12:02:38;101122.78;;;27.22;15.95
69780;BME280;57052;55.602;38.096;2023-04-19T12:05:14;101119.38;;;26.97;15.43
69780;BME280;57052;55.602;38.096;2023-04-19T12:08:05;101117.69;;;26.93;15.50
69780;BME280;57052;55.602;38.096;2023-04-19T12:10:34;101120.09;;;27.10;16.41
69780;BME280;57052;55.602;38.096;2023-04-19T12:13:00;101108.72;;;27.15;15.89
69780;BME280;57052;55.602;38.096;2023-04-19T12:15:42;101106.91;;;27.38;14.88
69780;BME280;57052;55.602;38.096;2023-04-19T12:18:07;101109.47;;;27.62;16.15
69780;BME280;57052;55.602;38.096;2023-04-19T12:20:36;101114.63;;;27.79;15.21
69780;BME280;57052;55.602;38.096;2023-04-19T12:23:02;101103.19;;;27.84;15.46
69780;BME280;57052;55.602;38.096;2023-04-19T12:25:32;101107.81;;;27.96;15.18
69780;BME280;57052;55.602;38.096;2023-04-19T12:28:04;101103.50;;;27.98;15.06
69780;BME280;57052;55.602;38.096;2023-04-19T12:30:30;101101.63;;;28.03;15.08
69780;BME280;57052;55.602;38.096;2023-04-19T12:32:57;101097.22;;;28.02;15.05
69780;BME280;57052;55.602;38.096;2023-04-19T12:35:24;101090.06;;;28.01;15.13
69780;BME280;57052;55.602;38.096;2023-04-19T12:37:55;101094.03;;;27.84;14.70
69780;BME280;57052;55.602;38.096;2023-04-19T12:40:22;101095.00;;;27.72;14.96
69780;BME280;57052;55.602;38.096;2023-04-19T12:42:48;101087.50;;;27.57;15.64
69780;BME280;57052;55.602;38.096;2023-04-19T12:45:14;101086.38;;;27.43;14.95
69780;BME280;57052;55.602;38.096;2023-04-19T12:47:40;101087.06;;;27.24;15.49
69780;BME280;57052;55.602;38.096;2023-04-19T12:50:07;101092.56;;;27.05;15.17